Time;durP1;ratioP1;P1;durP2;ratioP2;P2;SDS_P1;SDS_P2;PMS_P1;PMS_P2;Temp;Humidity;BMP_temperature;BMP_pressure;BME280_temperature;BME280_humidity;BME280_pressure;Samples;Min_cycle;Max_cycle;Signal;HPM_P1;HPM_P2
2021/09/21 00:01:59;;;;;;;;;;;;;;;5.06;82.65;97741.36;116857;1178;68298;-68
2021/09/21 00:04:39;;;;;;;;;;;;;;;5.00;83.36;97741.96;117089;1177;69372;-66
2021/09/21 00:07:09;;;;;;;;;;;;;;;4.96;83.72;97748.41;116861;1177;59519;-65
2021/09/21 00:09:39;;;;;;;;;;;;;;;4.90;83.92;97745.02;116886;1177;59532;-66
2021/09/21 00:12:08;;;;;;;;;;;;;;;4.97;83.01;97746.80;116824;1177;70579;-68
2021/09/21 00:14:39;;;;;;;;;;;;;;;4.95;83.01;97742.92;117069;1177;68276;-65
2021/09/21 00:17:09;;;;;;;;;;;;;;;4.89;83.40;97744.55;116623;1179;68458;-67
2021/09/21 00:19:39;;;;;;;;;;;;;;;4.80;84.05;97747.52;116779;1177;59490;-67
2021/09/21 00:22:09;;;;;;;;;;;;;;;4.75;82.96;97751.21;116904;1177;59465;-67
2021/09/21 00:24:38;;;;;;;;;;;;;;;4.67;83.63;97751.92;116771;1177;71398;-67
2021/09/21 00:27:09;;;;;;;;;;;;;;;4.62;82.80;97754.56;117104;1177;69038;-66
2021/09/21 00:29:39;;;;;;;;;;;;;;;4.53;83.69;97753.55;116719;1177;68270;-65
2021/09/21 00:32:15;;;;;;;;;;;;;;;4.47;84.76;97760.37;116739;1177;59571;-66
2021/09/21 00:34:45;;;;;;;;;;;;;;;4.36;85.34;97767.21;116784;1177;59551;-66
2021/09/21 00:37:16;;;;;;;;;;;;;;;4.33;84.93;97769.76;116821;1177;71350;-67
2021/09/21 00:39:46;;;;;;;;;;;;;;;4.31;84.08;97766.89;116694;1179;68930;-69
2021/09/21 00:42:22;;;;;;;;;;;;;;;4.28;84.98;97770.48;117047;1177;68318;-66
2021/09/21 00:44:54;;;;;;;;;;;;;;;4.26;85.13;97774.36;116766;1177;59529;-66
2021/09/21 00:47:24;;;;;;;;;;;;;;;4.25;84.60;97776.14;116718;1177;59462;-67
2021/09/21 00:49:54;;;;;;;;;;;;;;;4.22;84.64;97778.02;116744;1177;70401;-67
2021/09/21 00:52:25;;;;;;;;;;;;;;;4.20;84.11;97780.66;116718;1178;68400;-67
2021/09/21 00:54:54;;;;;;;;;;;;;;;4.20;83.40;97779.28;117051;1177;69229;-67
2021/09/21 00:57:24;;;;;;;;;;;;;;;4.16;84.29;97778.23;116676;1178;60059;-66
2021/09/21 00:59:54;;;;;;;;;;;;;;;4.15;84.37;97777.94;116723;1178;59522;-67
2021/09/21 01:02:23;;;;;;;;;;;;;;;4.17;84.77;97775.95;117220;1177;70458;-67
2021/09/21 01:04:53;;;;;;;;;;;;;;;4.19;84.13;97776.23;116751;1178;68463;-65
2021/09/21 01:07:23;;;;;;;;;;;;;;;4.18;84.04;97776.93;116734;1177;69422;-65
2021/09/21 01:10:00;;;;;;;;;;;;;;;4.17;84.00;97779.92;116730;1177;59542;-67
2021/09/21 01:12:30;;;;;;;;;;;;;;;4.13;84.76;97780.80;116893;1177;59530;-66
2021/09/21 01:15:01;;;;;;;;;;;;;;;4.09;84.12;97778.16;116928;1178;71372;-66
2021/09/21 01:17:32;;;;;;;;;;;;;;;4.05;84.59;97773.66;116794;1178;69011;-66
2021/09/21 01:20:04;;;;;;;;;;;;;;;4.01;84.78;97776.59;116739;1178;69311;-66
2021/09/21 01:22:34;;;;;;;;;;;;;;;3.98;84.60;97779.33;116682;1179;59539;-66
2021/09/21 01:25:06;;;;;;;;;;;;;;;3.95;83.72;97778.04;116841;1178;59491;-65
2021/09/21 01:27:38;;;;;;;;;;;;;;;3.93;84.04;97773.48;116745;1177;71262;-66
2021/09/21 01:30:10;;;;;;;;;;;;;;;3.88;85.48;97774.02;116702;1178;68372;-68
2021/09/21 01:32:42;;;;;;;;;;;;;;;3.84;85.95;97779.18;117026;1177;67881;-66
2021/09/21 01:35:13;;;;;;;;;;;;;;;3.81;85.86;97776.20;116687;1177;59535;-67
2021/09/21 01:37:50;;;;;;;;;;;;;;;3.79;86.01;97776.46;116776;1177;59490;-66
2021/09/21 01:40:21;;;;;;;;;;;;;;;3.77;85.78;97770.69;116792;1177;71343;-67
2021/09/21 01:42:51;;;;;;;;;;;;;;;3.73;85.63;97769.45;116698;1177;68413;-66
2021/09/21 01:45:21;;;;;;;;;;;;;;;3.68;85.91;97771.05;116700;1177;69372;-65
2021/09/21 01:47:51;;;;;;;;;;;;;;;3.62;85.55;97775.21;116691;1178;59516;-66
2021/09/21 01:50:31;;;;;;;;;;;;;;;3.59;85.32;97776.56;116839;1175;59462;-66
2021/09/21 02:00:46;;;;;;;;;;;;;;;3.59;83.86;97786.38;117057;1177;59564;-68
2021/09/21 02:03:15;;;;;;;;;;;;;;;3.65;84.41;97788.20;116874;1179;59537;-67
2021/09/21 02:05:47;;;;;;;;;;;;;;;3.73;84.72;97788.59;116772;1177;71440;-65
2021/09/21 02:08:17;;;;;;;;;;;;;;;3.79;84.84;97792.83;116615;1179;68475;-67
2021/09/21 02:10:47;;;;;;;;;;;;;;;3.87;84.79;97792.35;116656;1179;68494;-66
2021/09/21 02:13:17;;;;;;;;;;;;;;;3.94;84.89;97794.66;116802;1177;59564;-66
2021/09/21 02:15:47;;;;;;;;;;;;;;;3.98;84.75;97797.75;116763;1176;59535;-65
2021/09/21 02:18:18;;;;;;;;;;;;;;;4.03;84.68;97798.25;116937;1177;70491;-65
2021/09/21 02:20:48;;;;;;;;;;;;;;;4.07;84.60;97802.56;116830;1177;69136;-67
2021/09/21 02:23:18;;;;;;;;;;;;;;;4.10;84.47;97805.22;116779;1177;67268;-67
2021/09/21 02:25:47;;;;;;;;;;;;;;;4.13;84.50;97809.09;116763;1177;59500;-66
2021/09/21 02:28:17;;;;;;;;;;;;;;;4.11;84.37;97815.36;116822;1177;59507;-67
2021/09/21 02:30:47;;;;;;;;;;;;;;;4.05;84.75;97815.92;116758;1177;70606;-67
2021/09/21 02:33:16;;;;;;;;;;;;;;;4.00;84.35;97818.71;116837;1177;69204;-67
2021/09/21 02:35:46;;;;;;;;;;;;;;;3.95;84.16;97822.02;116796;1177;68469;-67
2021/09/21 02:38:15;;;;;;;;;;;;;;;3.91;84.31;97826.17;116813;1177;59523;-66
2021/09/21 02:40:45;;;;;;;;;;;;;;;3.87;84.60;97830.60;116787;1177;59522;-67
2021/09/21 02:43:15;;;;;;;;;;;;;;;3.87;84.66;97834.23;116738;1177;70589;-67
2021/09/21 02:45:45;;;;;;;;;;;;;;;3.87;84.65;97835.95;116859;1177;68329;-67
2021/09/21 02:48:16;;;;;;;;;;;;;;;3.87;84.13;97837.88;116643;1178;68464;-68
2021/09/21 02:50:45;;;;;;;;;;;;;;;3.91;84.15;97838.58;117119;1177;59491;-68
2021/09/21 02:53:17;;;;;;;;;;;;;;;3.87;84.62;97846.48;117035;1177;59507;-65
2021/09/21 02:55:47;;;;;;;;;;;;;;;3.80;86.04;97849.33;117073;1177;70552;-67
2021/09/21 02:58:17;;;;;;;;;;;;;;;3.78;86.67;97852.17;116749;1177;69165;-67
2021/09/21 03:00:50;;;;;;;;;;;;;;;3.77;86.60;97857.88;116741;1177;69325;-67
2021/09/21 03:03:21;;;;;;;;;;;;;;;3.76;86.99;97852.61;116726;1177;59539;-65
2021/09/21 03:05:57;;;;;;;;;;;;;;;3.78;86.54;97853.23;116760;1177;59511;-66
2021/09/21 03:08:31;;;;;;;;;;;;;;;3.81;85.24;97856.20;116817;1177;70817;-67
2021/09/21 03:13:54;;;;;;;;;;;;;;;3.86;85.04;97863.92;116783;1177;69054;-66
2021/09/21 03:19:12;;;;;;;;;;;;;;;3.94;87.01;97865.17;116808;1177;59536;-67
2021/09/21 03:21:44;;;;;;;;;;;;;;;3.98;86.47;97870.87;116884;1177;71348;-65
2021/09/21 03:24:13;;;;;;;;;;;;;;;4.04;86.31;97872.88;116802;1177;69195;-67
2021/09/21 03:26:43;;;;;;;;;;;;;;;4.09;87.62;97871.66;116767;1177;68450;-66
2021/09/21 03:29:13;;;;;;;;;;;;;;;4.14;86.60;97872.34;116757;1177;59542;-68
2021/09/21 03:31:42;;;;;;;;;;;;;;;4.19;85.85;97875.77;116947;1177;59516;-67
2021/09/21 03:34:11;;;;;;;;;;;;;;;4.22;85.75;97878.73;116719;1177;71372;-66
2021/09/21 03:36:41;;;;;;;;;;;;;;;4.27;84.84;97877.67;116817;1178;70309;-65
2021/09/21 03:39:11;;;;;;;;;;;;;;;4.33;84.64;97880.02;116780;1177;69447;-66
2021/09/21 03:41:41;;;;;;;;;;;;;;;4.37;84.94;97882.30;116873;1177;59510;-66
2021/09/21 03:44:11;;;;;;;;;;;;;;;4.37;84.99;97883.31;116746;1177;59536;-67
2021/09/21 03:46:40;;;;;;;;;;;;;;;4.36;84.90;97882.31;116782;1177;70420;-65
2021/09/21 03:49:10;;;;;;;;;;;;;;;4.30;84.69;97887.38;116802;1177;68987;-66
2021/09/21 03:51:39;;;;;;;;;;;;;;;4.24;84.69;97889.69;116806;1177;68310;-67
2021/09/21 03:54:09;;;;;;;;;;;;;;;4.20;84.70;97891.77;117001;1177;59451;-66
2021/09/21 03:56:39;;;;;;;;;;;;;;;4.17;84.88;97890.16;116760;1177;59506;-66
2021/09/21 03:59:09;;;;;;;;;;;;;;;4.14;84.99;97896.85;116772;1177;70573;-66
2021/09/21 04:01:39;;;;;;;;;;;;;;;4.11;85.17;97899.20;116775;1177;67958;-65
2021/09/21 04:04:23;;;;;;;;;;;;;;;4.10;85.54;97899.74;116620;1177;69342;-65
2021/09/21 04:06:59;;;;;;;;;;;;;;;4.11;85.35;97902.46;116782;1177;59523;-66
2021/09/21 04:09:28;;;;;;;;;;;;;;;4.11;85.32;97906.09;116723;1177;59546;-67
2021/09/21 04:11:58;;;;;;;;;;;;;;;4.11;85.31;97907.29;116748;1178;71276;-65
2021/09/21 04:14:31;;;;;;;;;;;;;;;4.13;85.28;97911.04;116854;1177;67480;-68
2021/09/21 04:17:00;;;;;;;;;;;;;;;4.16;85.34;97911.25;116742;1177;68354;-67
2021/09/21 04:19:29;;;;;;;;;;;;;;;4.18;85.31;97912.38;116807;1177;59541;-65
2021/09/21 04:21:58;;;;;;;;;;;;;;;4.20;85.53;97911.09;116899;1177;59539;-66
2021/09/21 04:24:28;;;;;;;;;;;;;;;4.20;85.56;97911.61;116862;1177;71222;-67
2021/09/21 04:26:57;;;;;;;;;;;;;;;4.18;86.24;97912.23;116727;1177;68578;-68
2021/09/21 04:29:27;;;;;;;;;;;;;;;4.16;85.37;97915.89;116779;1177;69117;-66
2021/09/21 04:32:00;;;;;;;;;;;;;;;4.15;85.36;97918.20;116792;1177;59523;-67
2021/09/21 04:34:30;;;;;;;;;;;;;;;4.12;85.77;97915.22;116763;1177;59282;-67
2021/09/21 04:37:00;;;;;;;;;;;;;;;4.09;85.73;97919.28;116785;1178;71417;-64
2021/09/21 04:39:32;;;;;;;;;;;;;;;4.06;85.13;97917.66;116824;1177;68929;-66
2021/09/21 04:42:02;;;;;;;;;;;;;;;4.03;85.15;97921.59;116703;1178;69276;-66
2021/09/21 04:44:32;;;;;;;;;;;;;;;4.01;85.00;97918.38;116760;1177;59491;-66
2021/09/21 04:47:02;;;;;;;;;;;;;;;4.01;84.98;97921.64;116806;1177;59531;-66
2021/09/21 04:49:31;;;;;;;;;;;;;;;4.12;85.28;97927.63;116865;1177;70417;-66
2021/09/21 04:52:00;;;;;;;;;;;;;;;4.30;85.89;97925.86;116695;1178;67551;-65
2021/09/21 04:54:29;;;;;;;;;;;;;;;4.60;85.39;97924.48;116680;1177;70038;-65
2021/09/21 04:56:58;;;;;;;;;;;;;;;5.03;84.94;97927.74;116768;1177;59491;-66
2021/09/21 04:59:28;;;;;;;;;;;;;;;5.52;84.53;97928.39;116769;1177;59482;-69
2021/09/21 05:01:57;;;;;;;;;;;;;;;6.08;83.40;97927.77;117082;1177;70413;-66
2021/09/21 05:04:26;;;;;;;;;;;;;;;6.60;82.83;97929.60;116821;1177;67417;-65
2021/09/21 05:06:55;;;;;;;;;;;;;;;7.11;84.27;97930.24;116717;1177;69517;-69
2021/09/21 05:09:24;;;;;;;;;;;;;;;7.47;81.43;97925.94;117150;1177;59488;-66
2021/09/21 05:11:53;;;;;;;;;;;;;;;7.71;76.32;97925.73;116731;1177;59512;-65
2021/09/21 05:14:24;;;;;;;;;;;;;;;7.98;76.73;97933.67;116822;1177;70841;-67
2021/09/21 05:17:02;;;;;;;;;;;;;;;8.11;72.77;97937.96;116884;1177;68319;-65
2021/09/21 05:19:31;;;;;;;;;;;;;;;8.29;74.20;97942.05;116948;1177;68441;-66
2021/09/21 05:22:00;;;;;;;;;;;;;;;8.69;76.85;97948.15;116897;1178;59541;-65
2021/09/21 05:24:29;;;;;;;;;;;;;;;9.11;71.50;97949.73;116788;1177;59516;-65
2021/09/21 05:26:59;;;;;;;;;;;;;;;9.35;71.48;97950.58;116884;1177;71374;-65
2021/09/21 05:29:28;;;;;;;;;;;;;;;9.80;69.68;97949.41;116868;1177;68498;-65
2021/09/21 05:31:59;;;;;;;;;;;;;;;10.29;70.01;97952.36;116801;1177;68435;-65
2021/09/21 05:34:27;;;;;;;;;;;;;;;10.82;69.24;97953.65;116890;1177;59493;-64
2021/09/21 05:36:57;;;;;;;;;;;;;;;11.06;61.63;97956.45;116894;1177;59522;-65
2021/09/21 05:39:27;;;;;;;;;;;;;;;11.34;64.11;97959.14;116841;1177;70557;-65
2021/09/21 05:41:56;;;;;;;;;;;;;;;11.65;63.90;97955.60;116907;1177;69113;-64
2021/09/21 05:44:25;;;;;;;;;;;;;;;11.88;61.49;97956.02;116830;1178;69447;-64
2021/09/21 05:46:55;;;;;;;;;;;;;;;11.86;59.07;97962.22;116873;1177;59538;-65
2021/09/21 05:49:24;;;;;;;;;;;;;;;12.12;61.91;97964.60;116884;1177;59543;-66
2021/09/21 05:51:53;;;;;;;;;;;;;;;12.31;59.84;97964.00;116853;1177;70606;-64
2021/09/21 05:54:23;;;;;;;;;;;;;;;12.32;58.17;97970.72;116854;1177;68466;-65
2021/09/21 05:56:52;;;;;;;;;;;;;;;12.43;59.18;97971.34;116780;1177;68488;-67
2021/09/21 05:59:21;;;;;;;;;;;;;;;12.79;61.25;97977.33;116720;1179;59903;-64
2021/09/21 06:01:50;;;;;;;;;;;;;;;13.00;58.44;97978.21;116922;1177;59536;-65
2021/09/21 06:04:20;;;;;;;;;;;;;;;12.88;56.99;97976.32;116821;1177;71392;-64
2021/09/21 06:06:49;;;;;;;;;;;;;;;12.95;57.41;97981.21;116852;1177;69134;-66
2021/09/21 06:09:18;;;;;;;;;;;;;;;13.19;56.66;97981.68;116831;1177;69335;-65
2021/09/21 06:11:48;;;;;;;;;;;;;;;13.44;55.83;97985.48;116852;1177;59522;-66
2021/09/21 06:14:17;;;;;;;;;;;;;;;13.64;53.55;97984.99;116885;1177;59542;-62
2021/09/21 06:16:46;;;;;;;;;;;;;;;13.81;53.83;97985.27;116917;1177;71496;-66
2021/09/21 06:19:16;;;;;;;;;;;;;;;14.14;52.89;97986.95;116921;1177;68192;-66
2021/09/21 06:21:45;;;;;;;;;;;;;;;14.15;52.81;97988.21;116997;1177;68682;-65
2021/09/21 06:24:14;;;;;;;;;;;;;;;13.78;52.78;97986.38;116823;1177;59517;-67
2021/09/21 06:26:43;;;;;;;;;;;;;;;13.59;54.03;97991.31;116805;1177;59540;-65
2021/09/21 06:29:12;;;;;;;;;;;;;;;13.54;54.46;97987.71;116997;1177;71412;-65
2021/09/21 06:31:42;;;;;;;;;;;;;;;13.53;53.38;97989.83;116814;1178;69341;-65
2021/09/21 06:34:11;;;;;;;;;;;;;;;12.82;53.35;97986.17;116833;1177;68486;-65
2021/09/21 06:36:40;;;;;;;;;;;;;;;12.41;56.08;97978.46;116802;1178;59519;-66
2021/09/21 06:39:10;;;;;;;;;;;;;;;12.51;56.84;97983.86;116759;1179;59504;-65
2021/09/21 06:41:39;;;;;;;;;;;;;;;12.63;56.05;97989.48;117028;1177;71288;-65
2021/09/21 06:44:08;;;;;;;;;;;;;;;12.48;56.27;97986.67;116891;1177;69082;-63
2021/09/21 06:46:37;;;;;;;;;;;;;;;12.57;55.56;97990.23;116815;1177;68226;-69
2021/09/21 06:49:06;;;;;;;;;;;;;;;12.37;55.97;97991.00;116984;1178;59584;-65
2021/09/21 06:51:35;;;;;;;;;;;;;;;12.28;56.26;97986.90;116883;1177;59526;-64
2021/09/21 06:54:04;;;;;;;;;;;;;;;11.99;56.45;97992.75;116914;1177;71869;-64
2021/09/21 06:56:33;;;;;;;;;;;;;;;11.87;57.17;97995.55;116708;1177;69231;-68
2021/09/21 06:59:02;;;;;;;;;;;;;;;11.50;58.44;97997.50;116887;1177;68635;-65
2021/09/21 07:01:31;;;;;;;;;;;;;;;11.16;59.37;97996.80;116749;1177;59506;-64
2021/09/21 07:04:00;;;;;;;;;;;;;;;10.68;60.32;97996.95;116789;1176;59523;-64
2021/09/21 07:06:30;;;;;;;;;;;;;;;10.51;61.19;97996.13;116737;1180;71327;-65
2021/09/21 07:09:00;;;;;;;;;;;;;;;10.35;62.19;97997.31;116889;1177;69140;-64
2021/09/21 07:11:29;;;;;;;;;;;;;;;10.26;62.23;98001.52;116876;1177;68431;-65
2021/09/21 07:13:58;;;;;;;;;;;;;;;10.31;61.93;98004.36;116788;1177;59548;-65
2021/09/21 07:16:29;;;;;;;;;;;;;;;10.22;62.32;98006.42;116851;1176;59755;-64
2021/09/21 07:19:04;;;;;;;;;;;;;;;10.24;62.09;98013.09;116834;1177;71682;-65
2021/09/21 07:21:33;;;;;;;;;;;;;;;10.21;62.17;98013.98;116886;1177;69248;-65
2021/09/21 07:24:03;;;;;;;;;;;;;;;10.14;62.79;98015.11;116835;1177;68445;-66
2021/09/21 07:26:32;;;;;;;;;;;;;;;10.18;62.57;98013.95;116754;1177;59522;-66
2021/09/21 07:29:01;;;;;;;;;;;;;;;10.30;62.53;98015.21;116825;1177;59522;-64
2021/09/21 07:31:30;;;;;;;;;;;;;;;10.41;62.77;98011.67;116849;1177;71382;-65
2021/09/21 07:33:59;;;;;;;;;;;;;;;10.62;62.37;98015.80;116879;1177;68462;-65
2021/09/21 07:36:29;;;;;;;;;;;;;;;10.86;61.68;98015.83;116814;1177;69248;-65
2021/09/21 07:38:58;;;;;;;;;;;;;;;11.24;61.71;98014.59;116820;1178;59507;-65
2021/09/21 07:41:28;;;;;;;;;;;;;;;11.66;59.58;98014.93;116854;1176;59948;-64
2021/09/21 07:43:57;;;;;;;;;;;;;;;11.59;59.20;98010.13;116809;1177;71402;-64
2021/09/21 07:46:26;;;;;;;;;;;;;;;11.65;59.77;98013.02;116810;1177;68955;-64
2021/09/21 07:48:55;;;;;;;;;;;;;;;11.81;59.18;98015.68;116854;1177;69289;-65
2021/09/21 07:51:25;;;;;;;;;;;;;;;11.99;59.02;98012.83;116847;1177;59645;-63
2021/09/21 07:53:54;;;;;;;;;;;;;;;12.13;58.46;98013.44;116835;1177;59619;-66
2021/09/21 07:56:24;;;;;;;;;;;;;;;12.11;57.75;98012.90;116826;1177;71237;-65
2021/09/21 07:58:53;;;;;;;;;;;;;;;12.09;58.30;98006.61;116738;1177;68475;-67
2021/09/21 08:01:22;;;;;;;;;;;;;;;12.07;57.57;98006.36;116873;1180;69297;-65
2021/09/21 08:03:56;;;;;;;;;;;;;;;12.35;57.68;98003.16;116999;1177;59560;-65
2021/09/21 08:06:26;;;;;;;;;;;;;;;12.56;56.94;98007.09;117008;1177;59533;-66
2021/09/21 08:08:55;;;;;;;;;;;;;;;12.82;56.89;98018.33;116827;1177;71440;-64
2021/09/21 08:11:24;;;;;;;;;;;;;;;13.16;56.79;98017.45;116825;1177;69137;-64
2021/09/21 08:13:53;;;;;;;;;;;;;;;13.49;55.26;98017.96;116919;1177;69245;-65
2021/09/21 08:16:22;;;;;;;;;;;;;;;13.60;53.35;98012.98;116849;1177;59596;-64
2021/09/21 08:18:51;;;;;;;;;;;;;;;13.87;53.73;98010.94;116878;1177;59466;-65
2021/09/21 08:21:20;;;;;;;;;;;;;;;14.22;51.77;98012.05;116829;1177;71114;-65
2021/09/21 08:23:49;;;;;;;;;;;;;;;13.94;51.12;98012.45;116799;1177;68685;-65
2021/09/21 08:26:19;;;;;;;;;;;;;;;13.62;51.60;98017.20;116821;1178;69263;-65
2021/09/21 08:28:48;;;;;;;;;;;;;;;13.79;52.75;98018.75;116922;1177;59557;-65
2021/09/21 08:31:17;;;;;;;;;;;;;;;13.89;52.15;98019.50;116822;1177;59538;-65
2021/09/21 08:33:48;;;;;;;;;;;;;;;13.75;52.54;98024.08;116863;1177;71496;-63
2021/09/21 08:36:24;;;;;;;;;;;;;;;13.67;53.01;98029.98;116780;1177;69264;-67
2021/09/21 08:38:56;;;;;;;;;;;;;;;13.61;52.43;98031.98;116976;1177;68152;-67
2021/09/21 08:41:26;;;;;;;;;;;;;;;13.70;53.60;98030.46;116985;1178;59530;-65
2021/09/21 08:43:55;;;;;;;;;;;;;;;14.38;53.35;98022.40;116967;1177;59500;-65
2021/09/21 08:46:25;;;;;;;;;;;;;;;15.20;51.14;98023.92;117012;1177;70660;-65
2021/09/21 08:48:54;;;;;;;;;;;;;;;15.64;49.13;98025.39;117019;1177;69780;-66
2021/09/21 08:51:23;;;;;;;;;;;;;;;15.99;47.71;98024.92;116994;1177;69313;-66
2021/09/21 08:53:52;;;;;;;;;;;;;;;16.17;46.40;98020.89;116761;1178;59538;-64
2021/09/21 08:56:22;;;;;;;;;;;;;;;16.46;46.95;98024.20;116817;1177;59563;-66
2021/09/21 08:58:58;;;;;;;;;;;;;;;16.38;46.89;98026.30;116924;1177;71416;-65
2021/09/21 09:01:37;;;;;;;;;;;;;;;15.85;46.92;98030.08;116971;1177;68514;-69
2021/09/21 09:04:06;;;;;;;;;;;;;;;15.72;48.09;98023.46;116961;1177;69340;-65
2021/09/21 09:06:45;;;;;;;;;;;;;;;16.07;47.68;98014.31;116951;1177;59462;-66
2021/09/21 09:09:20;;;;;;;;;;;;;;;16.44;44.74;98018.40;116886;1177;59484;-65
2021/09/21 09:11:51;;;;;;;;;;;;;;;16.90;44.69;98024.36;117031;1177;71142;-65
2021/09/21 09:14:19;;;;;;;;;;;;;;;16.75;44.22;98025.69;117006;1177;69263;-65
2021/09/21 09:16:54;;;;;;;;;;;;;;;16.12;44.11;98029.02;116852;1177;70444;-65
2021/09/21 09:19:35;;;;;;;;;;;;;;;15.46;43.76;98029.64;116862;1179;59535;-65
2021/09/21 09:22:05;;;;;;;;;;;;;;;15.18;45.65;98029.33;116945;1177;59525;-68
2021/09/21 09:24:48;;;;;;;;;;;;;;;15.12;45.15;98027.16;117008;1177;70787;-65
2021/09/21 09:27:18;;;;;;;;;;;;;;;15.59;45.01;98031.20;117067;1177;69271;-66
2021/09/21 09:29:54;;;;;;;;;;;;;;;15.68;43.78;98033.96;116963;1177;69797;-66
2021/09/21 09:32:23;;;;;;;;;;;;;;;15.59;44.56;98033.65;116868;1177;59911;-65
2021/09/21 09:34:57;;;;;;;;;;;;;;;15.61;45.33;98033.33;116913;1177;59497;-66
2021/09/21 09:37:37;;;;;;;;;;;;;;;15.97;44.98;98029.12;116917;1177;71150;-65
2021/09/21 09:40:08;;;;;;;;;;;;;;;16.46;43.34;98033.65;117048;1177;68825;-66
2021/09/21 09:42:44;;;;;;;;;;;;;;;16.77;43.09;98034.66;116993;1177;69256;-65
2021/09/21 09:45:13;;;;;;;;;;;;;;;16.95;41.95;98039.63;116974;1177;59615;-66
2021/09/21 09:47:47;;;;;;;;;;;;;;;17.03;40.75;98044.52;116846;1177;59515;-65
2021/09/21 09:50:16;;;;;;;;;;;;;;;16.72;40.74;98049.67;116795;1178;71389;-65
2021/09/21 09:52:46;;;;;;;;;;;;;;;16.64;41.06;98048.99;116904;1177;68508;-66
2021/09/21 09:55:15;;;;;;;;;;;;;;;15.55;40.93;98048.91;116885;1177;68564;-66
2021/09/21 09:57:44;;;;;;;;;;;;;;;15.96;42.62;98049.85;116742;1177;59571;-66
2021/09/21 10:00:13;;;;;;;;;;;;;;;17.05;42.33;98049.46;116800;1177;59605;-64
2021/09/21 10:02:43;;;;;;;;;;;;;;;18.13;40.68;98050.27;116876;1177;71217;-68
2021/09/21 10:05:12;;;;;;;;;;;;;;;18.79;39.98;98048.29;117016;1177;68917;-66
2021/09/21 10:07:41;;;;;;;;;;;;;;;19.25;37.36;98048.96;116834;1179;69917;-66
2021/09/21 10:10:10;;;;;;;;;;;;;;;19.38;35.50;98048.75;117081;1177;59560;-65
2021/09/21 10:12:39;;;;;;;;;;;;;;;19.40;35.70;98048.08;117044;1177;59574;-66
2021/09/21 10:15:09;;;;;;;;;;;;;;;19.32;34.39;98044.88;116986;1177;71662;-67
2021/09/21 10:17:47;;;;;;;;;;;;;;;19.22;34.87;98046.39;116989;1177;69176;-64
2021/09/21 10:20:16;;;;;;;;;;;;;;;18.99;35.41;98043.39;116920;1177;69260;-66
2021/09/21 10:22:53;;;;;;;;;;;;;;;18.91;35.66;98047.40;117011;1177;59581;-66
2021/09/21 10:25:29;;;;;;;;;;;;;;;19.61;36.55;98054.77;117010;1177;59533;-65
2021/09/21 10:28:20;;;;;;;;;;;;;;;20.34;34.39;98056.13;116999;1177;72042;-65
2021/09/21 10:30:53;;;;;;;;;;;;;;;20.84;33.93;98052.04;117052;1177;69189;-69
2021/09/21 10:33:23;;;;;;;;;;;;;;;21.65;32.71;98055.61;117052;1177;68997;-65
2021/09/21 10:35:53;;;;;;;;;;;;;;;22.09;31.96;98050.27;116986;1177;59519;-65
2021/09/21 10:38:22;;;;;;;;;;;;;;;22.07;30.75;98052.58;116937;1177;59538;-66
2021/09/21 10:40:52;;;;;;;;;;;;;;;22.19;30.81;98055.41;116939;1177;71175;-66
2021/09/21 10:43:21;;;;;;;;;;;;;;;22.74;29.42;98054.45;116958;1177;69295;-66
2021/09/21 10:45:51;;;;;;;;;;;;;;;23.32;30.40;98054.73;116955;1177;68560;-65
2021/09/21 10:48:21;;;;;;;;;;;;;;;24.09;28.74;98053.98;117020;1177;59529;-65
2021/09/21 10:50:57;;;;;;;;;;;;;;;24.57;26.62;98048.81;117019;1177;59522;-64
2021/09/21 10:53:26;;;;;;;;;;;;;;;24.77;26.91;98047.39;116993;1177;70558;-66
2021/09/21 10:56:09;;;;;;;;;;;;;;;24.86;26.98;98051.16;117079;1177;68297;-66
2021/09/21 10:58:39;;;;;;;;;;;;;;;24.92;25.74;98050.02;116991;1177;68325;-65
2021/09/21 11:01:08;;;;;;;;;;;;;;;25.30;25.93;98052.52;116925;1177;60686;-65
2021/09/21 11:03:41;;;;;;;;;;;;;;;25.80;25.24;98052.41;117024;1177;59514;-65
2021/09/21 11:06:12;;;;;;;;;;;;;;;24.28;24.80;98045.25;117017;1177;71494;-66
2021/09/21 11:08:41;;;;;;;;;;;;;;;25.02;25.44;98052.02;116904;1177;69134;-66
2021/09/21 11:11:10;;;;;;;;;;;;;;;24.72;25.71;98052.72;116990;1177;68779;-65
2021/09/21 11:13:40;;;;;;;;;;;;;;;24.27;24.66;98046.07;117021;1177;59542;-66
2021/09/21 11:16:12;;;;;;;;;;;;;;;24.62;25.97;98042.63;117000;1177;59542;-68
2021/09/21 11:18:44;;;;;;;;;;;;;;;24.07;25.98;98039.46;116995;1177;70566;-66
2021/09/21 11:21:12;;;;;;;;;;;;;;;23.77;26.54;98045.60;116956;1177;69844;-67
2021/09/21 11:23:42;;;;;;;;;;;;;;;24.18;25.57;98047.77;116845;1177;69362;-65
2021/09/21 11:26:12;;;;;;;;;;;;;;;24.62;25.65;98040.75;117051;1177;59531;-67
2021/09/21 11:28:45;;;;;;;;;;;;;;;25.09;24.91;98042.45;116876;1179;59551;-66
2021/09/21 11:31:16;;;;;;;;;;;;;;;25.54;24.12;98038.27;116956;1177;70987;-68
2021/09/21 11:33:47;;;;;;;;;;;;;;;25.33;23.76;98040.20;116938;1177;69105;-68
2021/09/21 11:36:18;;;;;;;;;;;;;;;25.54;23.30;98043.46;116911;1177;69056;-68
2021/09/21 11:38:49;;;;;;;;;;;;;;;25.81;21.75;98044.40;116926;1177;59497;-67
2021/09/21 11:41:21;;;;;;;;;;;;;;;26.05;22.31;98046.86;116946;1176;59460;-68
2021/09/21 11:43:52;;;;;;;;;;;;;;;26.41;21.60;98036.97;116930;1177;71371;-72
2021/09/21 11:46:31;;;;;;;;;;;;;;;26.38;21.27;98037.40;116848;1177;69606;-68
2021/09/21 11:49:03;;;;;;;;;;;;;;;26.53;21.74;98040.79;116783;1179;69315;-68
2021/09/21 11:51:35;;;;;;;;;;;;;;;26.85;22.38;98045.89;116857;1177;59479;-66
2021/09/21 11:54:05;;;;;;;;;;;;;;;27.31;22.34;98039.39;116830;1177;59586;-66
2021/09/21 11:56:39;;;;;;;;;;;;;;;27.44;21.48;98040.41;116899;1179;70635;-69
2021/09/21 11:59:09;;;;;;;;;;;;;;;26.28;21.64;98037.98;116887;1177;68512;-68
2021/09/21 12:01:39;;;;;;;;;;;;;;;25.64;22.98;98042.04;116834;1177;69170;-67
2021/09/21 12:04:09;;;;;;;;;;;;;;;25.19;23.42;98040.73;116805;1177;59540;-67
2021/09/21 12:06:39;;;;;;;;;;;;;;;25.10;23.19;98040.55;116887;1177;59558;-73
2021/09/21 12:09:09;;;;;;;;;;;;;;;24.90;23.85;98037.94;116871;1178;71191;-66
2021/09/21 12:11:43;;;;;;;;;;;;;;;24.24;24.53;98035.95;116947;1177;69260;-66
2021/09/21 12:14:15;;;;;;;;;;;;;;;23.04;25.68;98032.55;116845;1177;69303;-68
2021/09/21 12:16:49;;;;;;;;;;;;;;;22.40;26.76;98031.20;116613;1179;59541;-67
2021/09/21 12:19:20;;;;;;;;;;;;;;;22.08;27.29;98028.39;116800;1180;59516;-63
2021/09/21 12:21:50;;;;;;;;;;;;;;;21.88;27.98;98024.02;116619;1180;70536;-66
2021/09/21 12:24:28;;;;;;;;;;;;;;;22.01;28.14;98026.63;116784;1179;68968;-68
2021/09/21 12:27:02;;;;;;;;;;;;;;;22.19;27.85;98025.19;116829;1177;68233;-66
2021/09/21 12:29:33;;;;;;;;;;;;;;;21.88;27.91;98021.33;116720;1179;59608;-70
2021/09/21 12:32:04;;;;;;;;;;;;;;;22.08;27.80;98017.23;116829;1179;59503;-66
2021/09/21 12:34:37;;;;;;;;;;;;;;;23.08;26.76;98011.23;116909;1179;71559;-65
2021/09/21 12:37:06;;;;;;;;;;;;;;;23.97;24.22;98012.98;116870;1177;68532;-68
2021/09/21 12:39:37;;;;;;;;;;;;;;;24.27;23.90;98007.59;116787;1177;69056;-68
2021/09/21 12:42:09;;;;;;;;;;;;;;;24.45;23.53;98005.31;116710;1179;59497;-66
2021/09/21 12:44:38;;;;;;;;;;;;;;;24.03;23.96;98002.90;116846;1177;59537;-65
2021/09/21 12:47:08;;;;;;;;;;;;;;;23.88;24.31;98001.34;116942;1177;71398;-65
2021/09/21 12:49:41;;;;;;;;;;;;;;;24.38;24.49;98002.17;116977;1177;68309;-67
2021/09/21 12:52:10;;;;;;;;;;;;;;;25.32;23.85;98001.13;116964;1177;69283;-66
2021/09/21 12:54:47;;;;;;;;;;;;;;;25.89;22.65;97997.73;116926;1177;59517;-66
2021/09/21 12:57:21;;;;;;;;;;;;;;;26.17;21.62;97995.35;116965;1177;59572;-65
2021/09/21 12:59:51;;;;;;;;;;;;;;;26.21;21.70;97990.26;116950;1177;71363;-66
2021/09/21 13:02:20;;;;;;;;;;;;;;;26.55;21.89;97980.80;116941;1177;68454;-69
2021/09/21 13:04:54;;;;;;;;;;;;;;;26.74;20.74;97978.72;116885;1177;69339;-68
2021/09/21 13:07:24;;;;;;;;;;;;;;;26.81;20.87;97976.52;116857;1177;59539;-68
2021/09/21 13:09:54;;;;;;;;;;;;;;;27.04;20.75;97976.59;116883;1179;59529;-64
2021/09/21 13:12:27;;;;;;;;;;;;;;;26.95;20.33;97970.61;116952;1177;71382;-64